aviador You're here:

KSBP Decoded Metar

SAN LUIS OBISPO in CA, USA
Report Time2017-06-25 05:56:00
UTC Time2017-06-25 06:58:27
Flight Rules ifr IFR
Wind310° at 09 kt
W.Decomp.*RWY 29: 9.0 kt HW 0.8 kt RCW
RWY 25: 6.4 kt HW 6.4 kt RCW
W.Rank310° ranks 1
Current wind is below 310° avg. (10.4)
Visibility9999 m
Phenomena:N/A
Clouds:Overcast 006 Hf
Expected CloudBase > 400 ft AGL from Temp-Dew spread
Ceiling600 ft
Temp14°C (ISA -1)
Dew Point13°C (94% RH)
AAT11.7°C
QNH1014 hPa
Density Alt289 ft
Elevation194 ft
Report Wrong Elevation
Raw Report
KSBP 250556Z AUTO 31009KT 10SM OVC006 14/13 A2994 RMK AO2 SLP138
T01440133 10222 20144 53007=

Extra information for KSBP:More info

Metar Taf Metar & Taf Last 4 Metars F.Rules Stats Wind Profile Meteogram Temp Stats Airport Information Weather charts Add Link Nearby VenuesMetar ALERT Operation Metar Decoded Social comments

AIRNAV info for KSBP